aviador You're here:

LFBZ Decoded Metar

BIARRITZ-BAYONNE in FRANCE
Report Time2018-06-17 23:30:00
UTC Time2018-06-17 23:37:42
Flight Rules vfr VFR
Wind190° at 03 kt
W.Decomp.*RWY 27: 0.6 kt HW 2.9 kt LCW
W.Rank190° ranks 19
Current wind is below 190° avg. (4.2)
Visibility9999 m
Phenomena:N/A
Clouds:Few 018 Hf
Scattered 160 Hf
Expected CloudBase > 400 ft AGL from Temp-Dew spread
CeilingNone
Temp14°C (ISA -1)
Dew Point13°C (94% RH)
AAT13.9°C
QNH1026 hPa
Density Alt-69 ft
Elevation233 ft
Report Wrong Elevation
Raw Report
METAR LFBZ 172330Z AUTO 19003KT 9999 // FEW018 SCT160 14/13 Q1026=

Extra information for LFBZ:More info

Metar Taf Metar & Taf Last 4 Metars F.Rules Stats Wind Profile Meteogram Temp Stats Airport Information Weather charts Add Link Nearby VenuesMetar ALERT Operation Metar Decoded Social comments